sensor_id;sensor_type;location;lat;lon;timestamp;P1;durP1;ratioP1;P2;durP2;ratioP2
34481;SDS011;20720;48.886;9.388;2024-01-30T00:02:05;13.07;;;6.35;;
34481;SDS011;20720;48.886;9.388;2024-01-30T00:04:30;17.75;;;7.18;;
34481;SDS011;20720;48.886;9.388;2024-01-30T00:06:55;16.88;;;7.40;;
34481;SDS011;20720;48.886;9.388;2024-01-30T00:09:20;12.18;;;6.80;;
34481;SDS011;20720;48.886;9.388;2024-01-30T00:11:46;15.07;;;7.57;;
34481;SDS011;20720;48.886;9.388;2024-01-30T00:14:11;15.60;;;7.85;;
34481;SDS011;20720;48.886;9.388;2024-01-30T00:16:37;15.43;;;6.60;;
34481;SDS011;20720;48.886;9.388;2024-01-30T00:19:02;14.00;;;6.80;;
34481;SDS011;20720;48.886;9.388;2024-01-30T00:21:28;14.48;;;7.22;;
34481;SDS011;20720;48.886;9.388;2024-01-30T00:23:53;14.70;;;6.55;;
34481;SDS011;20720;48.886;9.388;2024-01-30T00:26:19;15.52;;;6.95;;
34481;SDS011;20720;48.886;9.388;2024-01-30T00:28:44;14.23;;;7.43;;
34481;SDS011;20720;48.886;9.388;2024-01-30T00:31:09;13.38;;;7.25;;
34481;SDS011;20720;48.886;9.388;2024-01-30T00:33:40;12.52;;;6.53;;
34481;SDS011;20720;48.886;9.388;2024-01-30T00:36:07;17.40;;;7.20;;
34481;SDS011;20720;48.886;9.388;2024-01-30T00:38:33;12.93;;;7.00;;
34481;SDS011;20720;48.886;9.388;2024-01-30T00:40:58;12.20;;;6.28;;
34481;SDS011;20720;48.886;9.388;2024-01-30T00:43:23;13.02;;;6.78;;
34481;SDS011;20720;48.886;9.388;2024-01-30T00:45:52;13.27;;;6.82;;
34481;SDS011;20720;48.886;9.388;2024-01-30T00:48:17;15.45;;;6.13;;
34481;SDS011;20720;48.886;9.388;2024-01-30T00:50:43;13.05;;;6.55;;
34481;SDS011;20720;48.886;9.388;2024-01-30T00:53:08;15.27;;;6.47;;
34481;SDS011;20720;48.886;9.388;2024-01-30T00:55:33;12.20;;;6.53;;
34481;SDS011;20720;48.886;9.388;2024-01-30T00:57:59;16.10;;;6.82;;
34481;SDS011;20720;48.886;9.388;2024-01-30T01:00:24;13.23;;;6.75;;
34481;SDS011;20720;48.886;9.388;2024-01-30T01:02:54;14.88;;;6.90;;
34481;SDS011;20720;48.886;9.388;2024-01-30T01:05:20;15.77;;;6.68;;
34481;SDS011;20720;48.886;9.388;2024-01-30T01:07:45;15.07;;;7.22;;
34481;SDS011;20720;48.886;9.388;2024-01-30T01:10:12;14.27;;;6.70;;
34481;SDS011;20720;48.886;9.388;2024-01-30T01:12:38;15.65;;;7.00;;
34481;SDS011;20720;48.886;9.388;2024-01-30T01:15:04;15.02;;;6.97;;
34481;SDS011;20720;48.886;9.388;2024-01-30T01:17:30;12.90;;;6.65;;
34481;SDS011;20720;48.886;9.388;2024-01-30T01:19:55;13.93;;;6.80;;
34481;SDS011;20720;48.886;9.388;2024-01-30T01:22:20;14.38;;;6.82;;
34481;SDS011;20720;48.886;9.388;2024-01-30T01:24:46;10.55;;;6.20;;
34481;SDS011;20720;48.886;9.388;2024-01-30T01:27:11;11.73;;;5.72;;
34481;SDS011;20720;48.886;9.388;2024-01-30T01:29:37;13.63;;;6.40;;
34481;SDS011;20720;48.886;9.388;2024-01-30T01:32:02;10.73;;;6.10;;
34481;SDS011;20720;48.886;9.388;2024-01-30T01:34:28;11.82;;;6.30;;
34481;SDS011;20720;48.886;9.388;2024-01-30T01:36:53;11.20;;;6.10;;
34481;SDS011;20720;48.886;9.388;2024-01-30T01:39:20;11.43;;;6.10;;
34481;SDS011;20720;48.886;9.388;2024-01-30T01:41:45;15.85;;;6.40;;
34481;SDS011;20720;48.886;9.388;2024-01-30T01:44:11;11.70;;;6.55;;
34481;SDS011;20720;48.886;9.388;2024-01-30T01:46:36;11.98;;;6.18;;
34481;SDS011;20720;48.886;9.388;2024-01-30T01:49:02;12.68;;;6.10;;
34481;SDS011;20720;48.886;9.388;2024-01-30T01:51:29;11.18;;;5.97;;
34481;SDS011;20720;48.886;9.388;2024-01-30T01:53:57;13.98;;;6.45;;
34481;SDS011;20720;48.886;9.388;2024-01-30T01:56:24;11.98;;;5.82;;
34481;SDS011;20720;48.886;9.388;2024-01-30T01:58:51;11.63;;;6.07;;
34481;SDS011;20720;48.886;9.388;2024-01-30T02:01:19;13.20;;;5.85;;
34481;SDS011;20720;48.886;9.388;2024-01-30T02:03:45;12.57;;;6.57;;
34481;SDS011;20720;48.886;9.388;2024-01-30T02:06:11;13.68;;;6.60;;
34481;SDS011;20720;48.886;9.388;2024-01-30T02:08:37;13.48;;;6.95;;
34481;SDS011;20720;48.886;9.388;2024-01-30T02:11:03;16.02;;;7.10;;
34481;SDS011;20720;48.886;9.388;2024-01-30T02:13:28;12.90;;;6.63;;
34481;SDS011;20720;48.886;9.388;2024-01-30T02:15:54;11.85;;;6.28;;
34481;SDS011;20720;48.886;9.388;2024-01-30T02:18:19;14.13;;;7.53;;
34481;SDS011;20720;48.886;9.388;2024-01-30T02:20:46;14.80;;;7.65;;
34481;SDS011;20720;48.886;9.388;2024-01-30T02:23:12;16.80;;;7.20;;
34481;SDS011;20720;48.886;9.388;2024-01-30T02:25:38;14.02;;;7.40;;
34481;SDS011;20720;48.886;9.388;2024-01-30T02:28:12;9.33;;;4.87;;
34481;SDS011;20720;48.886;9.388;2024-01-30T02:30:38;15.73;;;7.15;;
34481;SDS011;20720;48.886;9.388;2024-01-30T02:33:04;14.07;;;7.07;;
34481;SDS011;20720;48.886;9.388;2024-01-30T02:35:30;14.20;;;7.55;;
34481;SDS011;20720;48.886;9.388;2024-01-30T02:37:55;14.82;;;7.03;;
34481;SDS011;20720;48.886;9.388;2024-01-30T02:40:21;14.13;;;7.03;;
34481;SDS011;20720;48.886;9.388;2024-01-30T02:42:46;15.60;;;7.50;;
34481;SDS011;20720;48.886;9.388;2024-01-30T02:45:12;12.27;;;6.85;;
34481;SDS011;20720;48.886;9.388;2024-01-30T02:47:38;15.50;;;7.30;;
34481;SDS011;20720;48.886;9.388;2024-01-30T02:50:04;19.58;;;7.70;;
34481;SDS011;20720;48.886;9.388;2024-01-30T02:52:29;12.57;;;7.60;;
34481;SDS011;20720;48.886;9.388;2024-01-30T02:54:55;14.15;;;6.85;;
34481;SDS011;20720;48.886;9.388;2024-01-30T02:57:20;16.65;;;7.70;;
34481;SDS011;20720;48.886;9.388;2024-01-30T02:59:45;12.20;;;7.00;;
34481;SDS011;20720;48.886;9.388;2024-01-30T03:02:10;12.88;;;6.97;;
34481;SDS011;20720;48.886;9.388;2024-01-30T03:04:36;14.55;;;7.07;;
34481;SDS011;20720;48.886;9.388;2024-01-30T03:07:01;16.67;;;7.57;;
34481;SDS011;20720;48.886;9.388;2024-01-30T03:09:27;12.23;;;6.97;;
34481;SDS011;20720;48.886;9.388;2024-01-30T03:11:53;13.18;;;6.80;;
34481;SDS011;20720;48.886;9.388;2024-01-30T03:14:18;12.48;;;7.00;;
34481;SDS011;20720;48.886;9.388;2024-01-30T03:16:44;12.35;;;6.80;;
34481;SDS011;20720;48.886;9.388;2024-01-30T03:19:09;16.35;;;7.22;;
34481;SDS011;20720;48.886;9.388;2024-01-30T03:21:34;13.55;;;7.00;;
34481;SDS011;20720;48.886;9.388;2024-01-30T03:24:00;12.30;;;6.78;;
34481;SDS011;20720;48.886;9.388;2024-01-30T03:26:26;13.35;;;7.22;;
34481;SDS011;20720;48.886;9.388;2024-01-30T03:28:51;12.15;;;6.63;;
34481;SDS011;20720;48.886;9.388;2024-01-30T03:31:16;14.07;;;7.20;;
34481;SDS011;20720;48.886;9.388;2024-01-30T03:33:42;13.48;;;6.22;;
34481;SDS011;20720;48.886;9.388;2024-01-30T03:36:07;14.95;;;7.20;;
34481;SDS011;20720;48.886;9.388;2024-01-30T03:38:33;13.27;;;6.40;;
34481;SDS011;20720;48.886;9.388;2024-01-30T03:40:59;16.10;;;7.05;;
34481;SDS011;20720;48.886;9.388;2024-01-30T03:43:24;13.25;;;6.20;;
34481;SDS011;20720;48.886;9.388;2024-01-30T03:45:50;12.32;;;6.72;;
34481;SDS011;20720;48.886;9.388;2024-01-30T03:48:15;13.25;;;6.88;;
34481;SDS011;20720;48.886;9.388;2024-01-30T03:50:40;14.77;;;6.88;;
34481;SDS011;20720;48.886;9.388;2024-01-30T03:53:05;13.07;;;6.65;;
34481;SDS011;20720;48.886;9.388;2024-01-30T03:55:31;15.40;;;6.80;;
34481;SDS011;20720;48.886;9.388;2024-01-30T03:57:56;15.30;;;7.20;;
34481;SDS011;20720;48.886;9.388;2024-01-30T04:00:21;14.30;;;7.00;;
34481;SDS011;20720;48.886;9.388;2024-01-30T04:02:47;13.80;;;7.40;;
34481;SDS011;20720;48.886;9.388;2024-01-30T04:05:12;14.25;;;6.35;;
34481;SDS011;20720;48.886;9.388;2024-01-30T04:07:37;13.40;;;6.82;;
34481;SDS011;20720;48.886;9.388;2024-01-30T04:10:03;12.15;;;6.18;;
34481;SDS011;20720;48.886;9.388;2024-01-30T04:12:30;13.10;;;6.70;;
34481;SDS011;20720;48.886;9.388;2024-01-30T04:14:56;11.80;;;6.53;;
34481;SDS011;20720;48.886;9.388;2024-01-30T04:17:21;13.43;;;6.32;;
34481;SDS011;20720;48.886;9.388;2024-01-30T04:19:46;14.02;;;6.38;;
34481;SDS011;20720;48.886;9.388;2024-01-30T04:22:12;12.35;;;6.90;;
34481;SDS011;20720;48.886;9.388;2024-01-30T04:24:37;11.80;;;6.05;;
34481;SDS011;20720;48.886;9.388;2024-01-30T04:27:03;14.07;;;6.93;;
34481;SDS011;20720;48.886;9.388;2024-01-30T04:29:28;11.65;;;6.32;;
34481;SDS011;20720;48.886;9.388;2024-01-30T04:31:54;15.63;;;6.93;;
34481;SDS011;20720;48.886;9.388;2024-01-30T04:34:19;14.30;;;7.05;;
34481;SDS011;20720;48.886;9.388;2024-01-30T04:36:44;16.38;;;6.88;;
34481;SDS011;20720;48.886;9.388;2024-01-30T04:39:10;12.45;;;6.70;;
34481;SDS011;20720;48.886;9.388;2024-01-30T04:41:36;14.90;;;7.00;;
34481;SDS011;20720;48.886;9.388;2024-01-30T04:44:01;15.43;;;6.97;;
34481;SDS011;20720;48.886;9.388;2024-01-30T04:46:26;13.55;;;6.50;;
34481;SDS011;20720;48.886;9.388;2024-01-30T04:48:51;13.05;;;7.00;;
34481;SDS011;20720;48.886;9.388;2024-01-30T04:51:17;15.25;;;7.53;;
34481;SDS011;20720;48.886;9.388;2024-01-30T04:53:42;16.27;;;6.90;;
34481;SDS011;20720;48.886;9.388;2024-01-30T04:56:07;13.05;;;7.03;;
34481;SDS011;20720;48.886;9.388;2024-01-30T04:58:32;15.00;;;7.38;;
34481;SDS011;20720;48.886;9.388;2024-01-30T05:00:57;15.60;;;7.50;;
34481;SDS011;20720;48.886;9.388;2024-01-30T05:03:23;14.35;;;6.85;;
34481;SDS011;20720;48.886;9.388;2024-01-30T05:05:49;15.52;;;7.13;;
34481;SDS011;20720;48.886;9.388;2024-01-30T05:08:14;11.52;;;6.70;;
34481;SDS011;20720;48.886;9.388;2024-01-30T05:10:39;14.05;;;7.18;;
34481;SDS011;20720;48.886;9.388;2024-01-30T05:13:05;13.75;;;7.10;;
34481;SDS011;20720;48.886;9.388;2024-01-30T05:15:30;12.57;;;7.05;;
34481;SDS011;20720;48.886;9.388;2024-01-30T05:17:55;14.30;;;7.40;;
34481;SDS011;20720;48.886;9.388;2024-01-30T05:20:20;13.70;;;7.38;;
34481;SDS011;20720;48.886;9.388;2024-01-30T05:22:46;14.23;;;7.00;;
34481;SDS011;20720;48.886;9.388;2024-01-30T05:25:14;13.25;;;6.72;;
34481;SDS011;20720;48.886;9.388;2024-01-30T05:27:39;12.20;;;6.80;;
34481;SDS011;20720;48.886;9.388;2024-01-30T05:30:07;11.38;;;5.88;;
34481;SDS011;20720;48.886;9.388;2024-01-30T05:32:33;12.38;;;7.05;;
34481;SDS011;20720;48.886;9.388;2024-01-30T05:34:58;12.15;;;6.07;;
34481;SDS011;20720;48.886;9.388;2024-01-30T05:37:24;11.57;;;6.18;;
34481;SDS011;20720;48.886;9.388;2024-01-30T05:39:49;11.55;;;5.80;;
34481;SDS011;20720;48.886;9.388;2024-01-30T05:42:15;13.05;;;6.38;;
34481;SDS011;20720;48.886;9.388;2024-01-30T05:44:41;10.98;;;6.18;;
34481;SDS011;20720;48.886;9.388;2024-01-30T05:47:07;12.98;;;6.40;;
34481;SDS011;20720;48.886;9.388;2024-01-30T05:49:32;10.32;;;6.45;;
34481;SDS011;20720;48.886;9.388;2024-01-30T05:51:57;13.93;;;6.53;;
34481;SDS011;20720;48.886;9.388;2024-01-30T05:54:23;11.10;;;5.72;;
34481;SDS011;20720;48.886;9.388;2024-01-30T05:56:48;11.40;;;6.13;;
34481;SDS011;20720;48.886;9.388;2024-01-30T05:59:13;11.13;;;6.55;;
34481;SDS011;20720;48.886;9.388;2024-01-30T06:01:45;12.73;;;6.57;;
34481;SDS011;20720;48.886;9.388;2024-01-30T06:04:14;14.80;;;6.22;;
34481;SDS011;20720;48.886;9.388;2024-01-30T06:06:39;11.48;;;5.80;;
34481;SDS011;20720;48.886;9.388;2024-01-30T06:09:05;12.18;;;6.57;;
34481;SDS011;20720;48.886;9.388;2024-01-30T06:11:31;12.30;;;6.30;;
34481;SDS011;20720;48.886;9.388;2024-01-30T06:13:56;14.57;;;6.40;;
34481;SDS011;20720;48.886;9.388;2024-01-30T06:16:21;13.98;;;5.90;;
34481;SDS011;20720;48.886;9.388;2024-01-30T06:18:47;10.73;;;5.68;;
34481;SDS011;20720;48.886;9.388;2024-01-30T06:21:13;11.85;;;6.20;;
34481;SDS011;20720;48.886;9.388;2024-01-30T06:23:38;17.35;;;7.65;;
34481;SDS011;20720;48.886;9.388;2024-01-30T06:26:03;11.65;;;6.30;;
34481;SDS011;20720;48.886;9.388;2024-01-30T06:28:31;14.20;;;6.72;;
34481;SDS011;20720;48.886;9.388;2024-01-30T06:30:56;12.65;;;6.22;;
34481;SDS011;20720;48.886;9.388;2024-01-30T06:33:21;14.43;;;6.72;;
34481;SDS011;20720;48.886;9.388;2024-01-30T06:35:47;17.98;;;7.00;;
34481;SDS011;20720;48.886;9.388;2024-01-30T06:38:12;11.15;;;6.38;;
34481;SDS011;20720;48.886;9.388;2024-01-30T06:40:38;13.40;;;6.65;;
34481;SDS011;20720;48.886;9.388;2024-01-30T06:43:04;12.30;;;6.00;;
34481;SDS011;20720;48.886;9.388;2024-01-30T06:45:29;12.75;;;6.32;;
34481;SDS011;20720;48.886;9.388;2024-01-30T06:47:55;13.23;;;6.97;;
34481;SDS011;20720;48.886;9.388;2024-01-30T06:50:20;11.82;;;6.40;;
34481;SDS011;20720;48.886;9.388;2024-01-30T06:52:45;14.55;;;7.38;;
34481;SDS011;20720;48.886;9.388;2024-01-30T06:55:11;20.05;;;8.10;;
34481;SDS011;20720;48.886;9.388;2024-01-30T06:57:36;14.77;;;7.78;;
34481;SDS011;20720;48.886;9.388;2024-01-30T07:00:01;16.10;;;8.32;;
34481;SDS011;20720;48.886;9.388;2024-01-30T07:02:27;17.08;;;8.52;;
34481;SDS011;20720;48.886;9.388;2024-01-30T07:04:53;19.48;;;8.98;;
34481;SDS011;20720;48.886;9.388;2024-01-30T07:07:18;16.80;;;8.27;;
34481;SDS011;20720;48.886;9.388;2024-01-30T07:09:43;13.98;;;6.88;;
34481;SDS011;20720;48.886;9.388;2024-01-30T07:12:09;15.55;;;7.43;;
34481;SDS011;20720;48.886;9.388;2024-01-30T07:14:34;14.15;;;7.80;;
34481;SDS011;20720;48.886;9.388;2024-01-30T07:16:59;12.48;;;6.72;;
34481;SDS011;20720;48.886;9.388;2024-01-30T07:19:24;12.45;;;7.05;;
34481;SDS011;20720;48.886;9.388;2024-01-30T07:21:50;12.80;;;7.05;;
34481;SDS011;20720;48.886;9.388;2024-01-30T07:24:15;13.13;;;6.75;;
34481;SDS011;20720;48.886;9.388;2024-01-30T07:26:40;11.30;;;6.00;;
34481;SDS011;20720;48.886;9.388;2024-01-30T07:29:06;12.93;;;6.63;;
34481;SDS011;20720;48.886;9.388;2024-01-30T07:31:31;11.88;;;6.68;;
34481;SDS011;20720;48.886;9.388;2024-01-30T07:33:56;14.07;;;6.45;;
34481;SDS011;20720;48.886;9.388;2024-01-30T07:36:21;12.13;;;6.40;;
34481;SDS011;20720;48.886;9.388;2024-01-30T07:38:47;13.73;;;7.18;;
34481;SDS011;20720;48.886;9.388;2024-01-30T07:41:12;14.15;;;6.43;;
34481;SDS011;20720;48.886;9.388;2024-01-30T07:43:40;13.75;;;6.63;;
34481;SDS011;20720;48.886;9.388;2024-01-30T07:46:05;13.90;;;6.55;;
34481;SDS011;20720;48.886;9.388;2024-01-30T07:48:31;11.00;;;5.65;;
34481;SDS011;20720;48.886;9.388;2024-01-30T07:50:58;11.65;;;5.70;;
34481;SDS011;20720;48.886;9.388;2024-01-30T07:53:24;11.95;;;5.93;;
34481;SDS011;20720;48.886;9.388;2024-01-30T07:55:50;11.63;;;6.82;;
34481;SDS011;20720;48.886;9.388;2024-01-30T07:58:15;10.52;;;5.57;;
34481;SDS011;20720;48.886;9.388;2024-01-30T08:00:40;12.00;;;6.00;;
34481;SDS011;20720;48.886;9.388;2024-01-30T08:03:06;10.50;;;5.97;;
34481;SDS011;20720;48.886;9.388;2024-01-30T08:05:31;11.48;;;5.95;;
34481;SDS011;20720;48.886;9.388;2024-01-30T08:07:57;9.55;;;5.55;;
34481;SDS011;20720;48.886;9.388;2024-01-30T08:10:22;9.93;;;5.85;;
34481;SDS011;20720;48.886;9.388;2024-01-30T08:12:47;11.02;;;5.63;;
34481;SDS011;20720;48.886;9.388;2024-01-30T08:15:13;12.35;;;6.45;;
34481;SDS011;20720;48.886;9.388;2024-01-30T08:17:38;13.07;;;5.65;;
34481;SDS011;20720;48.886;9.388;2024-01-30T08:20:04;9.80;;;5.63;;
34481;SDS011;20720;48.886;9.388;2024-01-30T08:22:30;11.02;;;6.38;;
34481;SDS011;20720;48.886;9.388;2024-01-30T08:24:56;10.25;;;6.10;;
34481;SDS011;20720;48.886;9.388;2024-01-30T08:27:21;13.93;;;6.90;;
34481;SDS011;20720;48.886;9.388;2024-01-30T08:29:46;12.10;;;5.88;;
34481;SDS011;20720;48.886;9.388;2024-01-30T08:32:11;10.45;;;5.40;;
34481;SDS011;20720;48.886;9.388;2024-01-30T08:34:37;10.07;;;5.75;;
34481;SDS011;20720;48.886;9.388;2024-01-30T08:37:02;9.32;;;5.53;;
34481;SDS011;20720;48.886;9.388;2024-01-30T08:39:28;9.30;;;5.63;;
34481;SDS011;20720;48.886;9.388;2024-01-30T08:41:53;12.80;;;6.68;;
34481;SDS011;20720;48.886;9.388;2024-01-30T08:44:19;10.98;;;6.45;;
34481;SDS011;20720;48.886;9.388;2024-01-30T08:46:44;14.48;;;7.15;;
34481;SDS011;20720;48.886;9.388;2024-01-30T08:49:10;10.20;;;6.32;;
34481;SDS011;20720;48.886;9.388;2024-01-30T08:51:35;12.73;;;6.32;;
34481;SDS011;20720;48.886;9.388;2024-01-30T08:54:01;13.27;;;6.53;;
34481;SDS011;20720;48.886;9.388;2024-01-30T08:56:26;13.52;;;6.70;;
34481;SDS011;20720;48.886;9.388;2024-01-30T08:58:52;10.23;;;5.97;;
34481;SDS011;20720;48.886;9.388;2024-01-30T09:01:17;11.82;;;6.60;;
34481;SDS011;20720;48.886;9.388;2024-01-30T09:03:43;11.85;;;6.80;;
34481;SDS011;20720;48.886;9.388;2024-01-30T09:06:10;16.13;;;6.82;;
34481;SDS011;20720;48.886;9.388;2024-01-30T09:08:36;11.90;;;7.20;;
34481;SDS011;20720;48.886;9.388;2024-01-30T09:11:02;15.30;;;7.57;;
34481;SDS011;20720;48.886;9.388;2024-01-30T09:13:33;12.17;;;6.57;;
34481;SDS011;20720;48.886;9.388;2024-01-30T09:15:58;13.85;;;7.07;;
34481;SDS011;20720;48.886;9.388;2024-01-30T09:18:23;15.02;;;7.70;;
34481;SDS011;20720;48.886;9.388;2024-01-30T09:20:49;12.90;;;7.63;;
34481;SDS011;20720;48.886;9.388;2024-01-30T09:23:14;14.10;;;8.05;;
34481;SDS011;20720;48.886;9.388;2024-01-30T09:25:39;13.73;;;7.60;;
34481;SDS011;20720;48.886;9.388;2024-01-30T09:28:05;12.60;;;7.18;;
34481;SDS011;20720;48.886;9.388;2024-01-30T09:30:30;13.10;;;6.97;;
34481;SDS011;20720;48.886;9.388;2024-01-30T09:32:55;15.15;;;7.63;;
34481;SDS011;20720;48.886;9.388;2024-01-30T09:35:21;12.18;;;6.63;;
34481;SDS011;20720;48.886;9.388;2024-01-30T09:37:46;11.38;;;6.40;;
34481;SDS011;20720;48.886;9.388;2024-01-30T09:40:11;10.68;;;6.78;;
34481;SDS011;20720;48.886;9.388;2024-01-30T09:42:37;12.02;;;6.75;;
34481;SDS011;20720;48.886;9.388;2024-01-30T09:45:02;10.35;;;6.25;;
34481;SDS011;20720;48.886;9.388;2024-01-30T09:47:37;10.88;;;5.75;;
34481;SDS011;20720;48.886;9.388;2024-01-30T09:50:08;11.43;;;6.15;;
34481;SDS011;20720;48.886;9.388;2024-01-30T09:52:34;13.73;;;6.28;;
34481;SDS011;20720;48.886;9.388;2024-01-30T09:55:00;9.55;;;5.63;;
34481;SDS011;20720;48.886;9.388;2024-01-30T09:57:26;9.55;;;5.88;;
34481;SDS011;20720;48.886;9.388;2024-01-30T09:59:51;11.73;;;6.85;;
34481;SDS011;20720;48.886;9.388;2024-01-30T10:02:19;11.27;;;7.00;;
34481;SDS011;20720;48.886;9.388;2024-01-30T10:04:44;10.38;;;6.95;;
34481;SDS011;20720;48.886;9.388;2024-01-30T10:07:12;12.02;;;7.63;;
34481;SDS011;20720;48.886;9.388;2024-01-30T10:09:37;12.73;;;7.72;;
34481;SDS011;20720;48.886;9.388;2024-01-30T10:12:03;11.15;;;6.70;;
34481;SDS011;20720;48.886;9.388;2024-01-30T10:14:28;13.85;;;7.57;;
34481;SDS011;20720;48.886;9.388;2024-01-30T10:16:55;12.30;;;7.28;;
34481;SDS011;20720;48.886;9.388;2024-01-30T10:19:20;11.88;;;6.88;;
34481;SDS011;20720;48.886;9.388;2024-01-30T10:21:46;11.30;;;6.97;;
34481;SDS011;20720;48.886;9.388;2024-01-30T10:24:11;12.82;;;6.80;;
34481;SDS011;20720;48.886;9.388;2024-01-30T10:26:38;16.05;;;8.20;;
34481;SDS011;20720;48.886;9.388;2024-01-30T10:29:04;12.38;;;7.18;;
34481;SDS011;20720;48.886;9.388;2024-01-30T10:31:30;12.35;;;7.38;;
34481;SDS011;20720;48.886;9.388;2024-01-30T10:33:56;14.25;;;6.90;;
34481;SDS011;20720;48.886;9.388;2024-01-30T10:36:21;9.70;;;5.93;;
34481;SDS011;20720;48.886;9.388;2024-01-30T10:38:52;11.68;;;7.07;;
34481;SDS011;20720;48.886;9.388;2024-01-30T10:41:26;14.35;;;6.82;;
34481;SDS011;20720;48.886;9.388;2024-01-30T10:44:02;10.55;;;6.38;;
34481;SDS011;20720;48.886;9.388;2024-01-30T10:46:33;11.68;;;6.47;;
34481;SDS011;20720;48.886;9.388;2024-01-30T10:49:02;9.85;;;6.22;;
34481;SDS011;20720;48.886;9.388;2024-01-30T10:51:29;10.82;;;6.38;;
34481;SDS011;20720;48.886;9.388;2024-01-30T10:53:56;12.23;;;7.05;;
34481;SDS011;20720;48.886;9.388;2024-01-30T10:56:22;13.40;;;7.15;;
34481;SDS011;20720;48.886;9.388;2024-01-30T10:58:50;11.55;;;6.80;;
34481;SDS011;20720;48.886;9.388;2024-01-30T11:01:20;12.57;;;6.75;;
34481;SDS011;20720;48.886;9.388;2024-01-30T11:03:50;14.48;;;6.82;;
34481;SDS011;20720;48.886;9.388;2024-01-30T11:06:17;10.77;;;7.00;;
34481;SDS011;20720;48.886;9.388;2024-01-30T11:08:45;15.10;;;7.18;;
34481;SDS011;20720;48.886;9.388;2024-01-30T11:11:11;15.40;;;7.07;;
34481;SDS011;20720;48.886;9.388;2024-01-30T11:13:36;9.95;;;6.68;;
34481;SDS011;20720;48.886;9.388;2024-01-30T11:16:02;10.88;;;7.00;;
34481;SDS011;20720;48.886;9.388;2024-01-30T11:18:31;10.50;;;6.35;;
34481;SDS011;20720;48.886;9.388;2024-01-30T11:20:58;9.77;;;6.22;;
34481;SDS011;20720;48.886;9.388;2024-01-30T11:23:26;12.35;;;6.60;;
34481;SDS011;20720;48.886;9.388;2024-01-30T11:25:55;10.65;;;6.07;;
34481;SDS011;20720;48.886;9.388;2024-01-30T11:28:22;13.63;;;5.93;;
34481;SDS011;20720;48.886;9.388;2024-01-30T11:30:48;10.52;;;6.28;;
34481;SDS011;20720;48.886;9.388;2024-01-30T11:33:16;9.90;;;6.05;;
34481;SDS011;20720;48.886;9.388;2024-01-30T11:35:55;10.75;;;6.15;;
34481;SDS011;20720;48.886;9.388;2024-01-30T11:38:22;11.48;;;6.03;;
34481;SDS011;20720;48.886;9.388;2024-01-30T11:40:50;8.73;;;5.53;;
34481;SDS011;20720;48.886;9.388;2024-01-30T11:43:16;10.00;;;5.22;;
34481;SDS011;20720;48.886;9.388;2024-01-30T11:45:42;10.60;;;6.32;;
34481;SDS011;20720;48.886;9.388;2024-01-30T11:48:09;10.10;;;6.60;;
34481;SDS011;20720;48.886;9.388;2024-01-30T11:50:37;13.27;;;6.70;;
34481;SDS011;20720;48.886;9.388;2024-01-30T11:53:03;11.88;;;7.60;;
34481;SDS011;20720;48.886;9.388;2024-01-30T11:55:29;11.43;;;6.95;;
34481;SDS011;20720;48.886;9.388;2024-01-30T11:57:56;12.48;;;6.28;;
34481;SDS011;20720;48.886;9.388;2024-01-30T12:00:22;9.60;;;6.32;;
34481;SDS011;20720;48.886;9.388;2024-01-30T12:02:51;11.18;;;6.22;;
34481;SDS011;20720;48.886;9.388;2024-01-30T12:05:20;13.45;;;5.82;;
34481;SDS011;20720;48.886;9.388;2024-01-30T12:07:46;10.10;;;5.82;;
34481;SDS011;20720;48.886;9.388;2024-01-30T12:10:12;12.00;;;6.45;;
34481;SDS011;20720;48.886;9.388;2024-01-30T12:12:38;10.55;;;6.65;;
34481;SDS011;20720;48.886;9.388;2024-01-30T12:15:06;9.40;;;6.07;;
34481;SDS011;20720;48.886;9.388;2024-01-30T12:17:32;12.20;;;6.00;;
34481;SDS011;20720;48.886;9.388;2024-01-30T12:20:03;14.73;;;6.55;;
34481;SDS011;20720;48.886;9.388;2024-01-30T12:22:31;10.13;;;7.28;;
34481;SDS011;20720;48.886;9.388;2024-01-30T12:24:58;11.32;;;7.10;;
34481;SDS011;20720;48.886;9.388;2024-01-30T12:27:23;15.57;;;7.28;;
34481;SDS011;20720;48.886;9.388;2024-01-30T12:29:48;11.50;;;7.10;;
34481;SDS011;20720;48.886;9.388;2024-01-30T12:32:22;11.25;;;6.60;;
34481;SDS011;20720;48.886;9.388;2024-01-30T12:34:48;10.40;;;5.93;;
34481;SDS011;20720;48.886;9.388;2024-01-30T12:37:13;8.80;;;5.97;;
34481;SDS011;20720;48.886;9.388;2024-01-30T12:39:38;9.45;;;5.65;;
34481;SDS011;20720;48.886;9.388;2024-01-30T12:42:04;12.23;;;5.75;;
34481;SDS011;20720;48.886;9.388;2024-01-30T12:44:29;6.63;;;4.60;;
34481;SDS011;20720;48.886;9.388;2024-01-30T12:46:55;8.75;;;5.35;;
34481;SDS011;20720;48.886;9.388;2024-01-30T12:49:20;7.55;;;5.05;;
34481;SDS011;20720;48.886;9.388;2024-01-30T12:51:46;10.88;;;5.95;;
34481;SDS011;20720;48.886;9.388;2024-01-30T12:54:12;9.32;;;5.88;;
34481;SDS011;20720;48.886;9.388;2024-01-30T12:56:38;8.25;;;4.88;;
34481;SDS011;20720;48.886;9.388;2024-01-30T12:59:03;8.25;;;5.25;;
34481;SDS011;20720;48.886;9.388;2024-01-30T13:01:28;9.00;;;4.95;;
34481;SDS011;20720;48.886;9.388;2024-01-30T13:03:54;7.57;;;4.63;;
34481;SDS011;20720;48.886;9.388;2024-01-30T13:06:21;8.07;;;4.82;;
34481;SDS011;20720;48.886;9.388;2024-01-30T13:08:46;11.27;;;4.65;;
34481;SDS011;20720;48.886;9.388;2024-01-30T13:11:11;7.35;;;4.82;;
34481;SDS011;20720;48.886;9.388;2024-01-30T13:13:37;11.20;;;5.30;;
34481;SDS011;20720;48.886;9.388;2024-01-30T13:16:02;17.10;;;8.13;;
34481;SDS011;20720;48.886;9.388;2024-01-30T13:18:29;12.27;;;7.55;;
34481;SDS011;20720;48.886;9.388;2024-01-30T13:20:54;9.55;;;6.30;;
34481;SDS011;20720;48.886;9.388;2024-01-30T13:23:19;10.70;;;6.47;;
34481;SDS011;20720;48.886;9.388;2024-01-30T13:25:44;9.15;;;5.93;;
34481;SDS011;20720;48.886;9.388;2024-01-30T13:28:10;8.32;;;5.78;;
34481;SDS011;20720;48.886;9.388;2024-01-30T13:30:35;13.00;;;5.93;;
34481;SDS011;20720;48.886;9.388;2024-01-30T13:33:00;9.80;;;5.65;;
34481;SDS011;20720;48.886;9.388;2024-01-30T13:35:26;8.27;;;5.30;;
34481;SDS011;20720;48.886;9.388;2024-01-30T13:37:51;12.30;;;5.90;;
34481;SDS011;20720;48.886;9.388;2024-01-30T13:40:17;9.15;;;5.18;;
34481;SDS011;20720;48.886;9.388;2024-01-30T13:42:43;16.45;;;6.00;;
34481;SDS011;20720;48.886;9.388;2024-01-30T13:45:08;10.57;;;5.75;;
34481;SDS011;20720;48.886;9.388;2024-01-30T13:47:35;12.10;;;5.78;;
34481;SDS011;20720;48.886;9.388;2024-01-30T13:50:00;9.15;;;5.65;;
34481;SDS011;20720;48.886;9.388;2024-01-30T13:52:25;9.15;;;5.35;;
34481;SDS011;20720;48.886;9.388;2024-01-30T13:54:52;11.32;;;5.05;;
34481;SDS011;20720;48.886;9.388;2024-01-30T13:57:17;8.23;;;4.60;;
34481;SDS011;20720;48.886;9.388;2024-01-30T13:59:43;8.23;;;5.07;;
34481;SDS011;20720;48.886;9.388;2024-01-30T14:02:12;8.18;;;5.22;;
34481;SDS011;20720;48.886;9.388;2024-01-30T14:04:38;11.45;;;5.70;;
34481;SDS011;20720;48.886;9.388;2024-01-30T14:07:04;9.35;;;5.07;;
34481;SDS011;20720;48.886;9.388;2024-01-30T14:09:31;8.15;;;5.20;;
34481;SDS011;20720;48.886;9.388;2024-01-30T14:11:57;9.77;;;5.35;;
34481;SDS011;20720;48.886;9.388;2024-01-30T14:14:23;8.00;;;5.13;;
34481;SDS011;20720;48.886;9.388;2024-01-30T14:16:48;10.45;;;5.90;;
34481;SDS011;20720;48.886;9.388;2024-01-30T14:19:14;8.45;;;5.43;;
34481;SDS011;20720;48.886;9.388;2024-01-30T14:21:39;8.98;;;5.57;;
34481;SDS011;20720;48.886;9.388;2024-01-30T14:24:05;9.50;;;5.18;;
34481;SDS011;20720;48.886;9.388;2024-01-30T14:26:31;8.63;;;5.28;;
34481;SDS011;20720;48.886;9.388;2024-01-30T14:28:56;11.38;;;5.80;;